Time;durP1;ratioP1;P1;durP2;ratioP2;P2;SDS_P1;SDS_P2;PMS_P1;PMS_P2;Temp;Humidity;BMP_temperature;BMP_pressure;BME280_temperature;BME280_humidity;BME280_pressure;Samples;Min_cycle;Max_cycle;Signal;HPM_P1;HPM_P2
2023/12/12 00:00:30;;;;;;;5.38;1.55;;;8.00;99.90;;;;;;5073862;28;20037;-63
2023/12/12 00:02:59;;;;;;;4.30;1.40;;;8.00;99.90;;;;;;5073700;28;20445;-63
2023/12/12 00:05:25;;;;;;;3.50;1.23;;;8.00;99.90;;;;;;5074034;28;20059;-62
2023/12/12 00:07:50;;;;;;;5.35;1.50;;;8.00;99.90;;;;;;5073978;28;20064;-62
2023/12/12 00:10:16;;;;;;;3.47;1.30;;;8.00;99.90;;;;;;5073533;28;20051;-63
2023/12/12 00:12:42;;;;;;;5.35;1.20;;;8.00;99.90;;;;;;5073799;28;20025;-63
2023/12/12 00:15:08;;;;;;;8.45;1.63;;;8.00;99.90;;;;;;5073400;28;20052;-63
2023/12/12 00:17:34;;;;;;;3.00;1.08;;;8.00;99.90;;;;;;5073649;28;20056;-63
2023/12/12 00:20:00;;;;;;;3.85;1.85;;;8.10;99.90;;;;;;5061848;28;20040;-63
2023/12/12 00:22:26;;;;;;;4.45;1.48;;;8.00;99.90;;;;;;5053947;28;20029;-63
2023/12/12 00:24:51;;;;;;;5.60;1.42;;;8.00;99.90;;;;;;5053498;28;20082;-63
2023/12/12 00:27:17;;;;;;;4.45;1.58;;;8.00;99.90;;;;;;5053230;28;20025;-62
2023/12/12 00:29:45;;;;;;;7.65;1.63;;;8.00;99.90;;;;;;5053537;28;20029;-62
2023/12/12 00:32:10;;;;;;;5.00;1.42;;;8.00;99.90;;;;;;5053010;28;20484;-62
2023/12/12 00:34:37;;;;;;;5.25;1.25;;;7.90;99.90;;;;;;5053184;28;20025;-62
2023/12/12 00:37:03;;;;;;;7.93;1.40;;;7.90;99.90;;;;;;5052972;28;20025;-62
2023/12/12 00:39:29;;;;;;;4.88;1.40;;;7.90;99.90;;;;;;5053067;28;20039;-62
2023/12/12 00:41:54;;;;;;;3.05;1.17;;;7.90;99.90;;;;;;5053221;28;20136;-62
2023/12/12 00:44:20;;;;;;;6.60;1.20;;;7.80;99.90;;;;;;5052597;28;20025;-63
2023/12/12 00:46:45;;;;;;;5.28;1.40;;;7.80;99.90;;;;;;5052875;28;20033;-63
2023/12/12 00:49:11;;;;;;;7.28;1.52;;;7.80;99.90;;;;;;5052608;28;20040;-64
2023/12/12 00:51:37;;;;;;;6.43;1.98;;;7.70;99.90;;;;;;5053145;28;20071;-62
2023/12/12 00:54:02;;;;;;;5.97;1.40;;;7.70;99.90;;;;;;5052381;28;20080;-64
2023/12/12 00:56:28;;;;;;;4.97;1.55;;;7.70;99.90;;;;;;5052622;28;20071;-63
2023/12/12 00:58:53;;;;;;;3.67;1.40;;;7.70;99.90;;;;;;5052794;28;20114;-63
2023/12/12 01:01:19;;;;;;;4.03;1.50;;;7.70;99.90;;;;;;5052342;28;20112;-62
2023/12/12 01:03:45;;;;;;;3.65;1.27;;;7.60;99.90;;;;;;5052901;28;20354;-62
2023/12/12 01:06:24;;;;;;;7.15;1.70;;;7.60;99.90;;;;;;5052431;28;20412;-62
2023/12/12 01:08:50;;;;;;;8.20;1.77;;;7.60;99.90;;;;;;5052963;28;20029;-63
2023/12/12 01:11:16;;;;;;;5.18;1.70;;;7.60;99.90;;;;;;5052466;28;20110;-63
2023/12/12 01:13:41;;;;;;;10.00;3.00;;;7.50;99.90;;;;;;5052663;28;20086;-63
2023/12/12 01:16:07;;;;;;;3.88;1.70;;;7.50;99.90;;;;;;5051996;28;20460;-63
2023/12/12 01:18:34;;;;;;;7.53;1.90;;;7.50;99.90;;;;;;5052866;28;20108;-62
2023/12/12 01:21:00;;;;;;;4.88;1.65;;;7.50;99.90;;;;;;5052122;28;20124;-63
2023/12/12 01:23:26;;;;;;;7.25;1.55;;;7.50;99.90;;;;;;5052026;28;20376;-62
2023/12/12 01:25:52;;;;;;;7.65;2.00;;;7.50;99.90;;;;;;5052894;28;20112;-64
2023/12/12 01:28:17;;;;;;;4.28;1.35;;;7.50;99.90;;;;;;5051691;28;20025;-63
2023/12/12 01:30:43;;;;;;;7.43;1.60;;;7.50;99.90;;;;;;5052400;28;20029;-63
2023/12/12 01:33:08;;;;;;;4.18;1.30;;;7.40;99.90;;;;;;5051832;28;20191;-63
2023/12/12 01:35:34;;;;;;;10.48;2.17;;;7.50;99.90;;;;;;5052137;28;20487;-62
2023/12/12 01:38:00;;;;;;;4.90;1.45;;;7.50;99.90;;;;;;5051994;28;20454;-65
2023/12/12 01:40:25;;;;;;;7.05;1.38;;;7.40;99.90;;;;;;5056882;28;20120;-63
2023/12/12 01:42:51;;;;;;;7.85;1.35;;;7.40;99.90;;;;;;5072068;28;20017;-63
2023/12/12 01:45:16;;;;;;;6.95;1.20;;;7.40;99.90;;;;;;5070272;28;20108;-63
2023/12/12 01:47:42;;;;;;;7.00;1.35;;;7.40;99.90;;;;;;5072091;28;20031;-63
2023/12/12 01:50:08;;;;;;;8.18;1.35;;;7.40;99.90;;;;;;5071934;28;20039;-63
2023/12/12 01:52:35;;;;;;;3.53;1.38;;;7.40;99.90;;;;;;5072091;28;20059;-62
2023/12/12 01:55:01;;;;;;;5.45;1.40;;;7.40;99.90;;;;;;5071778;28;20513;-61
2023/12/12 01:57:27;;;;;;;3.00;1.10;;;7.30;99.90;;;;;;5072066;28;20106;-62
2023/12/12 01:59:53;;;;;;;5.95;1.50;;;7.40;99.90;;;;;;5070338;28;20412;-64
2023/12/12 02:02:19;;;;;;;4.70;1.52;;;7.30;99.90;;;;;;5071726;28;20032;-63
2023/12/12 02:04:48;;;;;;;8.38;1.90;;;7.30;99.90;;;;;;5070814;28;20093;-63
2023/12/12 02:07:15;;;;;;;5.93;1.30;;;7.40;99.90;;;;;;5069876;28;20389;-63
2023/12/12 02:09:42;;;;;;;6.97;1.40;;;7.30;99.90;;;;;;5071958;28;20350;-63
2023/12/12 02:12:07;;;;;;;4.97;1.27;;;7.40;99.90;;;;;;5071491;28;20024;-64
2023/12/12 02:14:37;;;;;;;5.47;1.30;;;7.40;99.90;;;;;;5071895;28;20047;-63
2023/12/12 02:17:03;;;;;;;5.82;1.52;;;7.40;99.90;;;;;;5071672;28;20445;-63
2023/12/12 02:19:28;;;;;;;3.13;1.13;;;7.40;99.90;;;;;;5071769;28;20131;-62
2023/12/12 02:21:54;;;;;;;4.15;1.30;;;7.40;99.90;;;;;;5055564;28;20032;-63
2023/12/12 02:24:20;;;;;;;6.60;1.45;;;7.50;99.90;;;;;;5051108;28;20037;-62
2023/12/12 02:26:45;;;;;;;7.18;1.75;;;7.50;99.90;;;;;;5051389;28;20359;-62
2023/12/12 02:29:11;;;;;;;4.00;1.30;;;7.50;99.90;;;;;;5051125;28;20124;-62
2023/12/12 02:31:37;;;;;;;5.05;1.00;;;7.50;99.90;;;;;;5051626;28;20060;-62
2023/12/12 02:34:02;;;;;;;4.72;1.45;;;7.60;99.90;;;;;;5051229;28;20029;-62
2023/12/12 02:36:28;;;;;;;5.70;1.50;;;7.60;99.90;;;;;;5050776;28;20086;-62
2023/12/12 02:38:54;;;;;;;4.97;1.20;;;7.70;99.90;;;;;;5051779;28;20057;-63
2023/12/12 02:41:19;;;;;;;5.40;1.45;;;7.70;99.90;;;;;;5050960;28;20033;-64
2023/12/12 02:43:45;;;;;;;5.93;1.35;;;7.70;99.90;;;;;;5051200;28;20465;-63
2023/12/12 02:46:11;;;;;;;5.45;1.25;;;7.70;99.90;;;;;;5051009;28;20035;-64
2023/12/12 02:48:36;;;;;;;4.63;1.27;;;7.70;99.90;;;;;;5050890;28;20373;-62
2023/12/12 02:51:02;;;;;;;7.07;1.45;;;7.80;99.90;;;;;;5051005;28;20029;-62
2023/12/12 02:53:28;;;;;;;7.68;1.40;;;7.80;99.90;;;;;;5050829;28;20028;-62
2023/12/12 02:55:53;;;;;;;6.10;1.50;;;7.80;99.90;;;;;;5051358;28;20025;-63
2023/12/12 02:58:19;;;;;;;5.68;1.67;;;7.70;99.90;;;;;;5050381;28;20049;-63
2023/12/12 03:00:44;;;;;;;6.80;1.60;;;7.70;99.90;;;;;;5051286;28;20037;-62
2023/12/12 03:03:10;;;;;;;3.78;1.20;;;7.70;99.90;;;;;;5050505;28;20398;-63
2023/12/12 03:05:35;;;;;;;5.38;1.20;;;7.60;99.90;;;;;;5051159;28;20040;-63
2023/12/12 03:08:01;;;;;;;5.22;1.25;;;7.60;99.90;;;;;;5051151;28;20445;-63
2023/12/12 03:10:26;;;;;;;5.80;1.45;;;7.60;99.90;;;;;;5050473;28;20055;-63
2023/12/12 03:12:52;;;;;;;6.18;1.48;;;7.60;99.90;;;;;;5051227;28;20116;-62
2023/12/12 03:15:18;;;;;;;5.18;1.42;;;7.60;99.90;;;;;;5050548;28;20116;-62
2023/12/12 03:17:43;;;;;;;5.78;1.60;;;7.60;99.90;;;;;;5051059;28;20389;-63
2023/12/12 03:20:09;;;;;;;4.43;1.33;;;7.70;99.90;;;;;;5052594;28;20036;-63
2023/12/12 03:22:35;;;;;;;6.82;1.40;;;7.70;99.90;;;;;;5055084;28;20083;-63
2023/12/12 03:25:01;;;;;;;7.85;1.23;;;7.80;99.90;;;;;;5054284;28;20478;-62
2023/12/12 03:27:26;;;;;;;6.82;1.55;;;7.80;99.90;;;;;;5054249;28;20029;-64
2023/12/12 03:29:52;;;;;;;5.70;2.03;;;7.80;99.90;;;;;;5054355;28;20108;-62
2023/12/12 03:32:18;;;;;;;9.43;1.33;;;7.90;99.90;;;;;;5055144;28;20036;-63
2023/12/12 03:34:43;;;;;;;6.05;1.40;;;7.90;99.90;;;;;;5069759;28;20035;-62
2023/12/12 03:37:09;;;;;;;4.88;1.35;;;7.90;99.90;;;;;;5074075;28;20028;-65
2023/12/12 03:39:37;;;;;;;6.82;1.40;;;7.90;99.90;;;;;;5074688;28;20036;-64
2023/12/12 03:42:03;;;;;;;7.03;1.38;;;7.90;99.90;;;;;;5074517;28;20044;-63
2023/12/12 03:44:29;;;;;;;6.45;1.65;;;7.90;99.90;;;;;;5073956;28;20028;-63
2023/12/12 03:46:54;;;;;;;4.32;1.30;;;7.90;99.90;;;;;;5074484;28;20108;-63
2023/12/12 03:49:20;;;;;;;8.07;2.05;;;7.90;99.90;;;;;;5073864;28;20595;-63
2023/12/12 03:51:45;;;;;;;9.23;1.58;;;7.90;99.90;;;;;;5074225;28;20032;-63
2023/12/12 03:54:11;;;;;;;5.10;1.48;;;7.80;99.90;;;;;;5073682;28;20109;-63
2023/12/12 03:56:36;;;;;;;7.25;1.35;;;7.80;99.90;;;;;;5073937;28;20036;-62
2023/12/12 03:59:02;;;;;;;7.78;1.70;;;7.80;99.90;;;;;;5073758;28;20182;-63
2023/12/12 04:01:28;;;;;;;5.05;1.60;;;7.90;99.90;;;;;;5073232;28;20032;-63
2023/12/12 04:03:55;;;;;;;5.82;1.42;;;7.90;99.90;;;;;;5073897;28;20035;-62
2023/12/12 04:06:22;;;;;;;3.25;1.40;;;8.00;99.90;;;;;;5073579;28;20361;-63
2023/12/12 04:08:47;;;;;;;6.40;1.50;;;8.00;99.90;;;;;;5073857;28;20030;-62
2023/12/12 04:11:13;;;;;;;5.43;1.05;;;8.00;99.90;;;;;;5073089;28;20051;-61
2023/12/12 04:13:39;;;;;;;3.70;1.40;;;8.00;99.90;;;;;;5073718;28;20103;-64
2023/12/12 04:16:05;;;;;;;4.80;1.33;;;8.00;99.90;;;;;;5073916;28;20377;-64
2023/12/12 04:18:30;;;;;;;5.65;1.30;;;8.00;99.90;;;;;;5073330;28;20021;-63
2023/12/12 04:20:56;;;;;;;3.20;0.88;;;8.00;99.90;;;;;;5054125;28;20029;-63
2023/12/12 04:23:22;;;;;;;6.57;1.70;;;8.00;99.90;;;;;;5053237;28;20021;-64
2023/12/12 04:25:47;;;;;;;5.30;1.65;;;8.00;99.90;;;;;;5054002;28;20025;-63
2023/12/12 04:28:13;;;;;;;6.53;1.60;;;8.00;99.90;;;;;;5052919;28;20025;-63
2023/12/12 04:30:38;;;;;;;6.57;1.30;;;8.00;99.90;;;;;;5052862;28;20037;-62
2023/12/12 04:33:04;;;;;;;5.22;1.55;;;8.00;99.90;;;;;;5053832;28;20063;-63
2023/12/12 04:35:29;;;;;;;5.80;1.20;;;8.00;99.90;;;;;;5052736;28;20048;-63
2023/12/12 04:37:55;;;;;;;3.40;1.25;;;8.00;99.90;;;;;;5053438;28;20031;-62
2023/12/12 04:40:20;;;;;;;5.43;1.10;;;8.00;99.90;;;;;;5052923;28;20406;-61
2023/12/12 04:42:46;;;;;;;5.55;1.70;;;8.00;99.90;;;;;;5053327;28;20037;-63
2023/12/12 04:45:12;;;;;;;3.85;1.13;;;8.00;99.90;;;;;;5053204;28;20147;-62
2023/12/12 04:47:37;;;;;;;8.63;2.45;;;8.00;99.90;;;;;;5052777;28;20049;-63
2023/12/12 04:50:03;;;;;;;6.07;1.45;;;8.00;99.90;;;;;;5053143;28;20182;-62
2023/12/12 04:52:29;;;;;;;7.13;1.48;;;7.90;99.90;;;;;;5052689;28;20033;-63
2023/12/12 04:54:54;;;;;;;5.97;1.33;;;8.00;99.90;;;;;;5052916;28;20025;-63
2023/12/12 04:57:20;;;;;;;5.90;1.42;;;7.90;99.90;;;;;;5052249;28;20553;-62
2023/12/12 04:59:46;;;;;;;4.53;1.73;;;7.90;99.90;;;;;;5052880;28;20045;-62
2023/12/12 05:02:11;;;;;;;5.82;1.48;;;7.90;99.90;;;;;;5051653;28;20126;-62
2023/12/12 05:04:37;;;;;;;6.32;1.70;;;7.90;99.90;;;;;;5052469;28;20108;-63
2023/12/12 05:07:04;;;;;;;7.57;2.67;;;7.90;99.90;;;;;;5052836;28;20029;-62
2023/12/12 05:09:29;;;;;;;8.40;1.65;;;7.80;99.90;;;;;;5052372;28;20025;-62
2023/12/12 05:11:55;;;;;;;5.88;1.80;;;7.90;99.90;;;;;;5052678;28;20033;-62
2023/12/12 05:14:21;;;;;;;6.93;1.67;;;7.90;99.90;;;;;;5051926;28;20087;-62
2023/12/12 05:16:47;;;;;;;5.72;2.00;;;7.80;99.90;;;;;;5052600;28;20022;-62
2023/12/12 05:19:12;;;;;;;6.03;2.13;;;7.80;99.90;;;;;;5052444;28;20086;-62
2023/12/12 05:21:38;;;;;;;6.88;1.73;;;7.80;99.90;;;;;;5052017;28;20024;-63
2023/12/12 05:24:04;;;;;;;4.82;1.50;;;7.90;99.90;;;;;;5052252;28;20025;-63
2023/12/12 05:26:29;;;;;;;8.18;1.40;;;7.90;99.90;;;;;;5051958;28;20025;-63
2023/12/12 05:28:55;;;;;;;9.70;2.35;;;7.90;99.90;;;;;;5052713;28;20040;-62
2023/12/12 05:31:24;;;;;;;7.70;1.75;;;7.90;99.90;;;;;;5051716;28;20078;-63
2023/12/12 05:33:49;;;;;;;6.38;1.70;;;7.90;99.90;;;;;;5052421;28;20113;-63
2023/12/12 05:36:15;;;;;;;4.43;1.92;;;7.90;99.90;;;;;;5052155;28;20223;-63
2023/12/12 05:38:41;;;;;;;6.90;2.22;;;7.90;99.90;;;;;;5061431;28;20102;-63
2023/12/12 05:41:06;;;;;;;7.28;2.10;;;7.80;99.90;;;;;;5072282;28;20039;-62
2023/12/12 05:43:32;;;;;;;4.70;1.58;;;7.80;99.90;;;;;;5070921;28;20033;-64
2023/12/12 05:45:58;;;;;;;8.65;2.20;;;7.80;99.90;;;;;;5071941;28;20027;-63
2023/12/12 05:48:24;;;;;;;8.25;2.60;;;7.80;99.90;;;;;;5071479;28;20052;-63
2023/12/12 05:50:49;;;;;;;6.40;2.17;;;7.80;99.90;;;;;;5071652;28;20075;-62
2023/12/12 05:53:15;;;;;;;9.35;2.20;;;7.80;99.90;;;;;;5071965;28;20033;-63
2023/12/12 05:55:40;;;;;;;5.50;1.70;;;7.70;99.90;;;;;;5071495;28;20020;-62
2023/12/12 05:58:06;;;;;;;5.00;1.80;;;7.80;99.90;;;;;;5071450;28;20539;-63
2023/12/12 06:00:32;;;;;;;7.05;1.83;;;7.70;99.90;;;;;;5071496;28;20079;-63
2023/12/12 06:02:58;;;;;;;10.02;1.95;;;7.70;99.90;;;;;;5071900;28;20098;-63
2023/12/12 06:05:24;;;;;;;6.93;1.88;;;7.70;99.90;;;;;;5071310;28;20432;-63
2023/12/12 06:07:49;;;;;;;8.25;2.45;;;7.80;99.90;;;;;;5071717;28;20039;-63
2023/12/12 06:10:15;;;;;;;5.85;2.08;;;7.80;99.90;;;;;;5071844;28;20060;-64
2023/12/12 06:12:43;;;;;;;11.57;3.45;;;7.70;99.90;;;;;;5071566;28;20024;-63
2023/12/12 06:15:09;;;;;;;7.78;2.58;;;7.70;99.90;;;;;;5072172;28;20021;-63
2023/12/12 06:17:35;;;;;;;5.63;1.90;;;7.70;99.90;;;;;;5071381;28;20033;-63
2023/12/12 06:20:01;;;;;;;6.03;1.90;;;7.70;99.90;;;;;;5071862;28;20056;-62
2023/12/12 06:22:27;;;;;;;9.15;2.22;;;7.80;99.90;;;;;;5071669;28;20025;-63
2023/12/12 06:24:53;;;;;;;7.95;2.00;;;7.80;99.90;;;;;;5072162;28;20401;-63
2023/12/12 06:27:19;;;;;;;4.60;1.73;;;7.80;99.90;;;;;;5058476;28;20029;-64
2023/12/12 06:29:44;;;;;;;5.90;2.00;;;7.80;99.90;;;;;;5051464;28;20389;-63
2023/12/12 06:32:10;;;;;;;6.35;2.15;;;7.80;99.90;;;;;;5051941;28;20025;-63
2023/12/12 06:34:36;;;;;;;5.30;1.60;;;7.80;99.90;;;;;;5051601;28;20025;-63
2023/12/12 06:37:03;;;;;;;7.47;1.95;;;7.80;99.90;;;;;;5051971;28;20032;-63
2023/12/12 06:39:28;;;;;;;6.85;1.90;;;7.90;99.90;;;;;;5051404;28;20094;-63
2023/12/12 06:41:54;;;;;;;6.78;2.22;;;7.90;99.90;;;;;;5051923;28;20033;-63
2023/12/12 06:44:20;;;;;;;5.78;1.88;;;7.90;99.90;;;;;;5050481;28;20033;-63
2023/12/12 06:46:45;;;;;;;9.73;3.13;;;7.90;99.90;;;;;;5051297;28;20454;-63
2023/12/12 06:49:11;;;;;;;7.10;1.75;;;8.00;99.90;;;;;;5051597;28;20064;-64
2023/12/12 06:51:36;;;;;;;6.90;1.92;;;8.00;99.90;;;;;;5050769;28;20025;-63
2023/12/12 06:54:03;;;;;;;8.13;2.20;;;8.00;99.90;;;;;;5053412;28;20029;-62
2023/12/12 06:56:28;;;;;;;7.45;2.08;;;8.10;99.90;;;;;;5054692;28;20029;-62
2023/12/12 06:58:54;;;;;;;6.93;2.05;;;8.10;99.90;;;;;;5055587;28;20513;-64
2023/12/12 07:01:20;;;;;;;10.20;2.15;;;8.10;99.90;;;;;;5055071;28;20051;-64
2023/12/12 07:03:45;;;;;;;6.28;2.03;;;8.10;99.90;;;;;;5055029;28;20032;-62
2023/12/12 07:06:11;;;;;;;7.05;2.10;;;8.10;99.90;;;;;;5055098;28;20057;-63
2023/12/12 07:08:37;;;;;;;12.00;2.60;;;8.10;99.90;;;;;;5054615;28;20036;-63
2023/12/12 07:11:03;;;;;;;7.55;1.88;;;8.20;99.90;;;;;;5055150;28;20029;-63
2023/12/12 07:13:28;;;;;;;7.93;1.92;;;8.20;99.90;;;;;;5054599;28;20025;-63
2023/12/12 07:15:54;;;;;;;10.38;2.00;;;8.20;99.90;;;;;;5055092;28;20481;-63
2023/12/12 07:18:19;;;;;;;7.35;2.10;;;8.20;99.90;;;;;;5054995;28;20027;-63
2023/12/12 07:20:45;;;;;;;7.03;1.65;;;8.20;99.90;;;;;;5054396;28;20040;-63
2023/12/12 07:23:11;;;;;;;7.40;2.42;;;8.20;99.90;;;;;;5054914;28;20036;-63
2023/12/12 07:25:38;;;;;;;9.63;2.50;;;8.20;99.90;;;;;;5054436;28;20025;-63
2023/12/12 07:28:04;;;;;;;9.13;2.60;;;8.20;99.90;;;;;;5053343;28;20120;-62
2023/12/12 07:30:30;;;;;;;7.10;1.90;;;8.20;99.90;;;;;;5054207;28;20037;-63
2023/12/12 07:32:56;;;;;;;13.50;3.22;;;8.20;99.90;;;;;;5054735;28;20032;-62
2023/12/12 07:35:23;;;;;;;6.97;2.25;;;8.20;99.90;;;;;;5064494;28;20028;-64
2023/12/12 07:37:48;;;;;;;12.15;3.65;;;8.30;99.90;;;;;;5074258;28;20467;-62
2023/12/12 07:40:14;;;;;;;10.25;2.60;;;8.30;99.90;;;;;;5074660;28;20187;-62
2023/12/12 07:42:40;;;;;;;8.63;2.30;;;8.30;99.90;;;;;;5074158;28;20103;-62
2023/12/12 07:45:07;;;;;;;7.20;2.83;;;8.30;99.90;;;;;;5074334;28;20073;-63
2023/12/12 07:47:33;;;;;;;6.72;2.55;;;8.30;99.90;;;;;;5073605;28;20561;-63
2023/12/12 07:49:59;;;;;;;8.55;2.35;;;8.30;99.90;;;;;;5074240;28;20479;-62
2023/12/12 07:52:25;;;;;;;11.82;2.70;;;8.30;99.90;;;;;;5074125;28;20392;-63
2023/12/12 07:54:51;;;;;;;9.05;2.88;;;8.30;99.90;;;;;;5073531;28;20481;-63
2023/12/12 07:57:17;;;;;;;11.20;2.25;;;8.40;99.90;;;;;;5074316;28;20117;-63
2023/12/12 07:59:42;;;;;;;5.35;2.03;;;8.40;99.90;;;;;;5073838;28;20450;-63
2023/12/12 08:02:08;;;;;;;11.30;2.40;;;8.40;99.90;;;;;;5073798;28;20094;-63
2023/12/12 08:04:35;;;;;;;8.20;2.83;;;8.40;99.90;;;;;;5073480;28;20446;-63
2023/12/12 08:07:01;;;;;;;10.45;2.50;;;8.40;99.90;;;;;;5073824;28;20016;-63
2023/12/12 08:09:28;;;;;;;8.75;2.30;;;8.40;99.90;;;;;;5074126;28;20024;-63
2023/12/12 08:11:54;;;;;;;6.03;2.83;;;8.40;99.90;;;;;;5074027;28;20020;-63
2023/12/12 08:14:20;;;;;;;6.90;2.38;;;8.40;99.90;;;;;;5072603;28;20103;-63
2023/12/12 08:16:45;;;;;;;5.82;2.78;;;8.40;99.90;;;;;;5073600;28;20116;-63
2023/12/12 08:19:11;;;;;;;10.57;3.25;;;8.50;99.90;;;;;;5073897;28;20025;-63
2023/12/12 08:21:36;;;;;;;14.45;3.17;;;8.50;99.90;;;;;;5073420;28;20033;-63
2023/12/12 08:24:03;;;;;;;12.88;4.00;;;8.50;99.90;;;;;;5068925;28;20104;-63
2023/12/12 08:26:28;;;;;;;10.68;3.22;;;8.50;99.90;;;;;;5053619;28;20040;-63
2023/12/12 08:28:55;;;;;;;6.53;2.78;;;8.50;99.90;;;;;;5053169;28;20025;-63
2023/12/12 08:31:21;;;;;;;12.23;3.15;;;8.50;99.90;;;;;;5053553;28;20056;-63
2023/12/12 08:33:46;;;;;;;12.20;3.97;;;8.50;99.90;;;;;;5053028;28;20466;-63
2023/12/12 08:36:12;;;;;;;8.73;3.50;;;8.50;99.90;;;;;;5053522;28;20056;-64
2023/12/12 08:38:38;;;;;;;15.75;4.22;;;8.50;99.90;;;;;;5053032;28;20036;-64
2023/12/12 08:41:04;;;;;;;11.65;4.25;;;8.60;99.90;;;;;;5053644;28;20450;-62
2023/12/12 08:43:30;;;;;;;11.02;3.58;;;8.60;99.90;;;;;;5053311;28;20386;-63
2023/12/12 08:45:56;;;;;;;10.93;3.20;;;8.60;99.90;;;;;;5052868;28;20025;-63
2023/12/12 08:48:23;;;;;;;9.05;3.70;;;8.60;99.90;;;;;;5053184;28;20036;-63
2023/12/12 08:50:50;;;;;;;12.68;3.58;;;8.70;99.90;;;;;;5052449;28;20112;-63
2023/12/12 08:53:16;;;;;;;12.05;3.85;;;8.70;99.90;;;;;;5052924;28;20413;-62
2023/12/12 08:55:42;;;;;;;9.02;3.20;;;8.70;99.90;;;;;;5052544;28;20409;-63
2023/12/12 08:58:08;;;;;;;9.82;3.22;;;8.70;99.90;;;;;;5052838;28;20036;-63
2023/12/12 09:00:33;;;;;;;7.32;3.00;;;8.80;99.90;;;;;;5052708;28;20029;-64
2023/12/12 09:02:59;;;;;;;6.78;2.58;;;8.80;99.90;;;;;;5053092;28;20114;-63
2023/12/12 09:05:25;;;;;;;11.40;3.40;;;8.80;99.90;;;;;;5052877;28;20424;-62
2023/12/12 09:07:51;;;;;;;8.93;3.78;;;8.90;99.90;;;;;;5052357;28;20037;-63
2023/12/12 09:10:17;;;;;;;8.65;3.38;;;8.90;99.90;;;;;;5052713;28;20538;-63
2023/12/12 09:12:43;;;;;;;6.75;3.30;;;8.90;99.90;;;;;;5052378;28;20049;-63
2023/12/12 09:15:09;;;;;;;8.40;2.97;;;8.90;99.90;;;;;;5052705;28;20052;-62
2023/12/12 09:17:35;;;;;;;7.43;2.70;;;9.00;99.90;;;;;;5051272;28;20037;-64
2023/12/12 09:20:01;;;;;;;6.70;2.63;;;9.00;99.90;;;;;;5052324;28;20036;-63
2023/12/12 09:22:27;;;;;;;6.50;2.30;;;9.00;99.90;;;;;;5052483;28;20040;-62
2023/12/12 09:24:54;;;;;;;8.23;2.05;;;9.00;99.90;;;;;;5052130;28;20017;-63
2023/12/12 09:27:20;;;;;;;7.22;2.47;;;9.10;99.90;;;;;;5052574;28;20063;-63
2023/12/12 09:29:45;;;;;;;8.18;2.25;;;9.10;99.90;;;;;;5052032;28;20382;-63
2023/12/12 09:32:12;;;;;;;9.95;2.70;;;9.10;99.90;;;;;;5052124;28;20060;-62
2023/12/12 09:34:38;;;;;;;7.75;2.78;;;9.10;99.90;;;;;;5051735;28;20032;-63
2023/12/12 09:37:03;;;;;;;8.55;3.10;;;9.10;99.90;;;;;;5052310;28;20041;-63
2023/12/12 09:39:29;;;;;;;12.88;3.65;;;9.20;99.90;;;;;;5052177;28;20021;-62
2023/12/12 09:41:58;;;;;;;12.13;3.45;;;9.20;99.90;;;;;;5051826;28;20095;-62
2023/12/12 09:44:28;;;;;;;10.88;2.60;;;9.20;99.90;;;;;;5054488;28;20025;-63
2023/12/12 09:46:53;;;;;;;5.32;2.25;;;9.30;99.90;;;;;;5071450;28;20473;-64
2023/12/12 09:49:20;;;;;;;6.65;2.50;;;9.30;99.90;;;;;;5072037;28;20052;-63
2023/12/12 09:51:50;;;;;;;11.82;2.35;;;9.30;99.90;;;;;;5071781;28;20032;-64
2023/12/12 09:54:17;;;;;;;12.75;2.70;;;9.40;99.90;;;;;;5072014;28;20032;-64
2023/12/12 09:56:44;;;;;;;8.32;2.83;;;9.40;99.90;;;;;;5071442;28;20044;-64
2023/12/12 09:59:10;;;;;;;9.10;2.85;;;9.50;99.90;;;;;;5071720;28;20086;-63
2023/12/12 10:01:35;;;;;;;13.40;3.17;;;9.50;99.90;;;;;;5071851;28;20024;-64
2023/12/12 10:04:06;;;;;;;7.57;2.47;;;9.60;99.90;;;;;;5071440;28;20029;-63
2023/12/12 10:06:38;;;;;;;7.60;2.15;;;9.70;99.90;;;;;;5072008;28;20052;-63
2023/12/12 10:09:03;;;;;;;9.48;2.67;;;9.70;99.90;;;;;;5072175;28;20059;-62
2023/12/12 10:11:29;;;;;;;12.45;2.25;;;9.70;99.70;;;;;;5072142;28;20037;-63
2023/12/12 10:13:56;;;;;;;9.93;2.50;;;9.80;99.50;;;;;;5071548;28;20028;-64
2023/12/12 10:16:22;;;;;;;11.02;2.53;;;9.80;99.40;;;;;;5072012;28;20094;-63
2023/12/12 10:18:50;;;;;;;14.25;3.05;;;9.80;99.30;;;;;;5071387;28;20021;-63
2023/12/12 10:21:20;;;;;;;8.75;2.63;;;9.80;99.40;;;;;;5071798;28;20036;-63
2023/12/12 10:23:47;;;;;;;7.95;2.55;;;9.90;99.30;;;;;;5071662;28;20113;-62
2023/12/12 10:26:32;;;;;;;12.07;3.13;;;9.90;99.10;;;;;;5071708;28;20135;-62
2023/12/12 10:28:59;;;;;;;8.75;2.17;;;9.90;98.90;;;;;;5073389;28;20064;-63
2023/12/12 10:31:24;;;;;;;9.73;2.33;;;9.90;98.50;;;;;;5072378;28;20029;-64
2023/12/12 10:33:51;;;;;;;6.72;1.85;;;10.00;98.20;;;;;;5055452;28;20032;-62
2023/12/12 10:36:17;;;;;;;9.35;2.40;;;10.00;97.80;;;;;;5055763;28;20029;-62
2023/12/12 10:38:44;;;;;;;11.65;3.88;;;10.00;97.50;;;;;;5055410;28;20141;-63
2023/12/12 10:41:14;;;;;;;11.90;2.40;;;10.00;97.20;;;;;;5055509;28;20069;-63
2023/12/12 10:43:40;;;;;;;9.02;2.00;;;10.10;97.10;;;;;;5055123;28;20029;-66
2023/12/12 10:46:10;;;;;;;9.57;2.60;;;10.10;97.10;;;;;;5055550;28;20025;-63
2023/12/12 10:48:44;;;;;;;11.48;2.25;;;10.10;97.00;;;;;;5055448;28;20037;-62
2023/12/12 10:51:11;;;;;;;10.77;2.72;;;10.10;97.00;;;;;;5055233;28;20375;-63
2023/12/12 10:53:37;;;;;;;14.48;2.33;;;10.10;96.80;;;;;;5055148;28;20436;-63
2023/12/12 10:56:04;;;;;;;14.98;3.60;;;10.20;96.70;;;;;;5055327;28;20033;-63
2023/12/12 10:58:31;;;;;;;13.95;3.50;;;10.20;96.60;;;;;;5055325;28;20072;-63
2023/12/12 11:00:58;;;;;;;7.38;3.03;;;10.20;96.50;;;;;;5055018;28;20029;-62
2023/12/12 11:03:24;;;;;;;12.60;2.75;;;10.30;96.50;;;;;;5055060;28;20033;-63
2023/12/12 11:05:50;;;;;;;8.10;2.10;;;10.40;96.30;;;;;;5054556;28;20083;-63
2023/12/12 11:08:18;;;;;;;8.15;2.45;;;10.40;96.10;;;;;;5055021;28;20025;-63
2023/12/12 11:10:46;;;;;;;10.65;2.35;;;10.50;95.90;;;;;;5054330;28;20413;-62
2023/12/12 11:13:15;;;;;;;18.50;5.20;;;10.50;95.80;;;;;;5054660;28;20474;-63
2023/12/12 11:15:42;;;;;;;7.18;2.05;;;10.50;95.40;;;;;;5054838;28;20032;-62
2023/12/12 11:18:09;;;;;;;11.85;2.53;;;10.60;95.30;;;;;;5054812;28;20079;-63
2023/12/12 11:20:40;;;;;;;10.80;2.30;;;10.60;95.50;;;;;;5054765;28;20036;-63
2023/12/12 11:23:07;;;;;;;10.02;2.50;;;10.70;95.80;;;;;;5054386;28;20468;-63
2023/12/12 11:25:35;;;;;;;11.35;2.53;;;10.80;96.10;;;;;;5054702;28;20109;-63
2023/12/12 11:28:01;;;;;;;11.20;2.70;;;10.80;95.60;;;;;;5053890;28;20033;-63
2023/12/12 11:30:34;;;;;;;14.90;3.55;;;10.90;95.10;;;;;;5054553;28;20524;-63
2023/12/12 11:33:00;;;;;;;10.57;3.38;;;10.90;94.80;;;;;;5054377;28;20044;-63
2023/12/12 11:35:31;;;;;;;14.30;3.20;;;11.00;94.80;;;;;;5054157;28;20067;-63
2023/12/12 11:38:04;;;;;;;20.63;5.70;;;11.10;94.40;;;;;;5054000;28;20151;-64
2023/12/12 11:40:33;;;;;;;9.35;3.25;;;11.10;93.90;;;;;;5053169;28;20086;-63
2023/12/12 11:43:22;;;;;;;13.15;3.35;;;11.20;93.80;;;;;;5054214;28;20064;-63
2023/12/12 11:45:48;;;;;;;11.10;2.67;;;11.20;93.50;;;;;;5066513;28;20032;-63
2023/12/12 11:48:14;;;;;;;8.27;2.70;;;11.20;93.30;;;;;;5074525;28;20039;-63
2023/12/12 11:50:41;;;;;;;8.30;2.40;;;11.20;93.30;;;;;;5074268;28;20039;-62
2023/12/12 11:53:07;;;;;;;9.20;2.97;;;11.20;93.80;;;;;;5072476;28;20031;-64
2023/12/12 11:55:34;;;;;;;8.95;2.70;;;11.30;93.70;;;;;;5074375;28;20025;-64
2023/12/12 11:58:02;;;;;;;7.60;3.17;;;11.40;93.40;;;;;;5073738;28;20032;-62
2023/12/12 12:00:36;;;;;;;9.52;3.15;;;11.60;93.30;;;;;;5073864;28;20495;-63
2023/12/12 12:03:03;;;;;;;12.13;2.55;;;11.60;93.00;;;;;;5073571;28;20468;-63
2023/12/12 12:05:29;;;;;;;16.17;4.60;;;11.70;92.70;;;;;;5074099;28;20461;-64
2023/12/12 12:07:58;;;;;;;9.20;2.47;;;11.80;92.30;;;;;;5072262;28;20052;-64
2023/12/12 12:10:24;;;;;;;10.60;3.10;;;11.80;91.80;;;;;;5074045;28;20052;-63
2023/12/12 12:13:02;;;;;;;9.93;2.50;;;11.70;91.60;;;;;;5073470;28;20020;-63
2023/12/12 12:15:28;;;;;;;9.77;2.60;;;11.70;91.30;;;;;;5073967;28;20025;-63
2023/12/12 12:17:53;;;;;;;11.55;2.65;;;11.70;91.10;;;;;;5073422;28;20070;-63
2023/12/12 12:20:19;;;;;;;11.15;2.63;;;11.70;91.20;;;;;;5073518;28;20043;-62
2023/12/12 12:22:45;;;;;;;11.52;2.25;;;11.70;91.10;;;;;;5073690;28;20116;-62
2023/12/12 12:25:10;;;;;;;10.82;2.72;;;11.80;91.10;;;;;;5073206;28;20048;-62
2023/12/12 12:27:54;;;;;;;11.07;2.60;;;11.80;91.00;;;;;;5073428;28;20029;-64
2023/12/12 12:30:20;;;;;;;10.45;2.30;;;12.00;91.40;;;;;;5073337;28;20028;-63
2023/12/12 12:33:00;;;;;;;14.90;2.50;;;12.10;91.30;;;;;;5053664;28;20152;-63
2023/12/12 12:35:25;;;;;;;7.72;2.17;;;12.10;90.70;;;;;;5053155;28;20036;-63
2023/12/12 12:37:53;;;;;;;6.60;2.15;;;12.10;90.40;;;;;;5052405;28;20512;-63
2023/12/12 12:40:36;;;;;;;8.48;2.40;;;12.20;90.60;;;;;;5053181;28;20112;-63
2023/12/12 12:43:04;;;;;;;7.47;2.40;;;12.20;90.60;;;;;;5052760;28;20029;-62
2023/12/12 12:45:31;;;;;;;10.75;2.72;;;12.20;89.50;;;;;;5052934;28;20465;-62
2023/12/12 12:47:57;;;;;;;9.13;2.80;;;12.20;89.10;;;;;;5052692;28;20017;-63